createdAt,value
2022-10-17T00:02:25.353Z,43.35
2022-10-17T00:04:54.060Z,43.58
2022-10-17T00:07:22.552Z,43.09
2022-10-17T00:09:52.828Z,43.09
2022-10-17T00:12:21.248Z,42.78
2022-10-17T00:14:49.929Z,42.72
2022-10-17T00:17:18.360Z,42.48
2022-10-17T00:19:46.987Z,42.39
2022-10-17T00:22:15.511Z,42.30
2022-10-17T00:24:44.211Z,42.07
2022-10-17T00:27:14.009Z,42.23
2022-10-17T00:29:42.871Z,42.03
2022-10-17T00:32:11.278Z,41.99
2022-10-17T00:34:40.196Z,42.09
2022-10-17T00:37:08.875Z,42.24
2022-10-17T00:39:37.501Z,42.50
2022-10-17T00:42:06.117Z,41.83
2022-10-17T00:45:01.355Z,42.30
2022-10-17T00:47:31.037Z,41.89
2022-10-17T00:52:34.773Z,41.91
2022-10-17T00:55:12.898Z,41.92
2022-10-17T00:57:42.579Z,41.93
2022-10-17T01:00:15.693Z,42.04
2022-10-17T01:02:44.867Z,41.89
2022-10-17T01:05:14.167Z,41.90
2022-10-17T01:07:45.641Z,42.22
2022-10-17T01:10:15.329Z,41.93
2022-10-17T01:12:56.561Z,42.21
2022-10-17T01:15:39.796Z,42.08
2022-10-17T01:18:21.056Z,42.36
2022-10-17T01:21:17.897Z,41.79
2022-10-17T01:23:55.584Z,42.12
2022-10-17T01:26:29.009Z,42.33
2022-10-17T01:29:23.156Z,42.28
2022-10-17T01:32:00.641Z,42.50
2022-10-17T01:34:36.080Z,42.58
2022-10-17T01:37:15.146Z,42.30
2022-10-17T01:39:48.070Z,42.40
2022-10-17T01:42:23.490Z,42.43
2022-10-17T01:44:59.984Z,42.28
2022-10-17T01:47:33.889Z,42.31
2022-10-17T01:50:08.383Z,42.86
2022-10-17T01:52:43.405Z,42.85
2022-10-17T01:55:17.961Z,42.98
2022-10-17T01:57:51.696Z,43.17
2022-10-17T02:00:23.933Z,43.22
2022-10-17T02:02:59.393Z,43.87
2022-10-17T02:05:33.596Z,44.06
2022-10-17T02:08:02.320Z,43.55
2022-10-17T02:10:37.818Z,43.52
2022-10-17T02:13:16.677Z,43.75
2022-10-17T02:16:00.392Z,43.22
2022-10-17T02:18:54.403Z,43.43
2022-10-17T02:21:33.002Z,43.76
2022-10-17T02:24:08.879Z,43.73
2022-10-17T02:26:44.501Z,43.38
2022-10-17T02:29:19.101Z,43.43
2022-10-17T02:31:51.217Z,43.17
2022-10-17T02:34:27.588Z,43.56
2022-10-17T02:37:00.291Z,43.68
2022-10-17T02:39:31.257Z,43.73
2022-10-17T02:42:05.403Z,44.20
2022-10-17T02:44:35.325Z,44.18
2022-10-17T02:47:10.321Z,43.75
2022-10-17T02:49:45.618Z,44.47
2022-10-17T02:52:22.416Z,43.94
2022-10-17T02:54:55.966Z,44.51
2022-10-17T02:57:32.339Z,44.42
2022-10-17T03:00:04.932Z,44.55
2022-10-17T03:02:41.569Z,44.56
2022-10-17T03:05:15.172Z,44.82
2022-10-17T03:07:43.570Z,44.34
2022-10-17T03:10:12.991Z,44.56
2022-10-17T03:12:41.469Z,44.38
2022-10-17T03:15:12.808Z,44.43
2022-10-17T03:17:42.395Z,44.32
2022-10-17T03:20:13.499Z,44.40
2022-10-17T03:22:42.067Z,44.30
2022-10-17T03:25:12.020Z,44.54
2022-10-17T03:27:40.543Z,44.33
2022-10-17T03:30:11.538Z,44.47
2022-10-17T03:32:40.401Z,44.46
2022-10-17T03:35:13.983Z,44.69
2022-10-17T03:37:48.595Z,44.80
2022-10-17T03:40:18.632Z,45.08
2022-10-17T03:42:47.012Z,45.10
2022-10-17T03:45:16.251Z,44.67
2022-10-17T03:47:46.217Z,45.06
2022-10-17T03:50:15.346Z,44.53
2022-10-17T03:52:49.368Z,44.74
2022-10-17T03:55:18.611Z,45.02
2022-10-17T03:57:47.268Z,44.85
2022-10-17T04:00:18.410Z,44.70
2022-10-17T04:02:55.083Z,45.07
2022-10-17T04:05:24.818Z,45.09
2022-10-17T04:07:54.781Z,44.97
2022-10-17T04:10:32.001Z,45.26
2022-10-17T04:13:00.559Z,45.32
2022-10-17T04:15:29.384Z,46.14
2022-10-17T04:17:57.915Z,45.64
2022-10-17T04:20:26.963Z,45.27
2022-10-17T04:22:56.919Z,45.71
2022-10-17T04:25:25.750Z,45.97
2022-10-17T04:27:54.237Z,45.76
2022-10-17T04:30:23.059Z,45.94
2022-10-17T04:32:52.283Z,45.55
2022-10-17T04:35:23.670Z,46.12
2022-10-17T04:38:01.096Z,45.86
2022-10-17T04:40:29.842Z,46.13
2022-10-17T04:42:58.407Z,46.09
2022-10-17T04:45:34.715Z,46.33
2022-10-17T04:48:05.891Z,47.15
2022-10-17T04:50:34.564Z,46.85
2022-10-17T04:53:35.476Z,46.69
2022-10-17T04:56:10.380Z,46.34
2022-10-17T04:58:40.473Z,46.25
2022-10-17T05:01:11.520Z,46.29
2022-10-17T05:03:42.728Z,46.29
2022-10-17T05:06:13.346Z,46.20
2022-10-17T05:08:46.436Z,45.95
2022-10-17T05:11:20.584Z,45.97
2022-10-17T05:13:52.576Z,45.97
2022-10-17T05:16:22.537Z,45.87
2022-10-17T05:18:53.027Z,45.38
2022-10-17T05:21:24.401Z,45.87
2022-10-17T05:23:56.646Z,45.33
2022-10-17T05:26:26.687Z,45.53
2022-10-17T05:28:55.402Z,44.97
2022-10-17T05:31:26.942Z,45.06
2022-10-17T05:33:55.339Z,44.61
2022-10-17T05:36:24.580Z,44.18
2022-10-17T05:38:54.972Z,44.01
2022-10-17T05:41:24.392Z,43.95
2022-10-17T05:43:52.826Z,44.25
2022-10-17T05:46:30.804Z,43.73
2022-10-17T05:48:59.244Z,43.79
2022-10-17T05:51:28.134Z,43.63
2022-10-17T05:53:59.735Z,43.22
2022-10-17T05:56:29.934Z,43.53
2022-10-17T05:59:01.055Z,43.49
2022-10-17T06:01:50.711Z,43.78
2022-10-17T06:04:19.431Z,43.49
2022-10-17T06:06:48.209Z,43.73
2022-10-17T06:09:18.240Z,43.41
2022-10-17T06:11:50.157Z,43.05
2022-10-17T06:14:18.924Z,42.75
2022-10-17T06:16:49.730Z,42.63
2022-10-17T06:19:18.523Z,42.59
2022-10-17T06:21:48.610Z,43.11
2022-10-17T06:24:23.487Z,42.52
2022-10-17T06:26:54.360Z,42.45
2022-10-17T06:29:24.183Z,42.35
2022-10-17T06:31:54.115Z,42.40
2022-10-17T06:34:22.806Z,42.09
2022-10-17T06:36:51.901Z,42.07
2022-10-17T06:39:21.078Z,41.68
2022-10-17T06:42:06.319Z,41.98
2022-10-17T06:44:57.536Z,41.84
2022-10-17T06:47:55.835Z,42.09
2022-10-17T06:50:45.108Z,42.02
2022-10-17T06:53:25.975Z,41.90
2022-10-17T06:56:12.576Z,41.94
2022-10-17T06:59:09.899Z,42.19
2022-10-17T07:01:41.875Z,41.72
2022-10-17T07:04:14.845Z,41.49
2022-10-17T07:06:43.494Z,41.48
2022-10-17T07:09:18.155Z,41.21
2022-10-17T07:11:47.018Z,41.35
2022-10-17T07:14:20.952Z,41.22
2022-10-17T07:16:50.343Z,40.60
2022-10-17T07:19:25.595Z,40.68
2022-10-17T07:21:54.196Z,40.59
2022-10-17T07:24:23.509Z,40.83
2022-10-17T07:26:58.183Z,40.43
2022-10-17T07:29:28.814Z,40.46
2022-10-17T07:32:08.665Z,40.48
2022-10-17T07:34:37.676Z,40.11
2022-10-17T07:37:09.961Z,40.47
2022-10-17T07:39:41.147Z,39.88
2022-10-17T07:42:12.034Z,40.24
2022-10-17T07:44:42.205Z,39.86
2022-10-17T07:47:11.682Z,39.16
2022-10-17T07:49:42.741Z,39.22
2022-10-17T07:52:11.692Z,38.88
2022-10-17T07:54:40.559Z,38.90
2022-10-17T07:57:09.259Z,39.14
2022-10-17T07:59:39.465Z,38.41
2022-10-17T08:02:15.328Z,38.14
2022-10-17T08:04:44.108Z,38.05
2022-10-17T08:07:21.739Z,37.82
2022-10-17T08:09:52.093Z,37.84
2022-10-17T08:12:20.618Z,37.51
2022-10-17T08:14:50.746Z,37.64
2022-10-17T08:17:20.643Z,36.93
2022-10-17T08:19:49.653Z,36.99
2022-10-17T08:22:18.067Z,37.00
2022-10-17T08:24:47.314Z,36.79
2022-10-17T08:27:21.396Z,37.06
2022-10-17T08:29:52.871Z,36.62
2022-10-17T08:32:25.055Z,36.25
2022-10-17T08:34:54.108Z,36.02
2022-10-17T08:37:22.504Z,35.70
2022-10-17T08:39:51.135Z,36.00
2022-10-17T08:42:35.683Z,35.81
2022-10-17T08:45:14.707Z,35.90
2022-10-17T08:47:48.543Z,36.03
2022-10-17T08:50:32.164Z,35.69
2022-10-17T08:53:07.193Z,35.65
2022-10-17T08:55:42.799Z,35.42
2022-10-17T08:58:15.892Z,35.36
2022-10-17T09:00:50.552Z,35.25
2022-10-17T09:03:33.919Z,35.30
2022-10-17T09:06:16.202Z,34.28
2022-10-17T09:08:54.344Z,34.44
2022-10-17T09:11:41.957Z,34.16
2022-10-17T09:14:29.549Z,34.19
2022-10-17T09:17:12.422Z,34.09
2022-10-17T09:19:50.249Z,34.47
2022-10-17T09:22:24.460Z,34.53
2022-10-17T09:24:58.471Z,34.61
2022-10-17T09:27:34.825Z,34.30
2022-10-17T09:30:40.452Z,33.97
2022-10-17T09:33:23.335Z,33.93
2022-10-17T09:36:05.519Z,33.62
2022-10-17T09:38:41.597Z,33.66
2022-10-17T09:44:26.246Z,32.36
2022-10-17T09:47:16.597Z,32.01
2022-10-17T09:49:47.271Z,31.68
2022-10-17T09:52:19.969Z,32.44
2022-10-17T09:54:51.589Z,33.13
2022-10-17T09:57:21.825Z,31.99
2022-10-17T09:59:59.411Z,31.62
2022-10-17T10:02:30.026Z,31.70
2022-10-17T10:05:04.619Z,31.37
2022-10-17T10:07:38.700Z,31.38
2022-10-17T10:10:23.938Z,31.38
2022-10-17T10:13:05.785Z,30.69
2022-10-17T10:15:37.897Z,31.37
2022-10-17T10:21:09.080Z,31.26
2022-10-17T10:23:41.163Z,31.45
2022-10-17T10:26:23.552Z,30.98
2022-10-17T10:29:00.075Z,31.05
2022-10-17T10:31:32.874Z,30.21
2022-10-17T10:34:04.185Z,30.25
2022-10-17T10:36:56.389Z,30.20
2022-10-17T10:39:35.925Z,30.15
2022-10-17T10:42:08.697Z,29.62
2022-10-17T10:44:42.108Z,30.16
2022-10-17T10:47:21.791Z,29.99
2022-10-17T10:49:53.864Z,29.97
2022-10-17T10:52:39.105Z,29.73
2022-10-17T10:55:19.387Z,29.37
2022-10-17T10:57:50.378Z,29.76
2022-10-17T11:00:24.319Z,29.67
2022-10-17T11:03:01.918Z,29.96
2022-10-17T11:05:46.727Z,28.99
2022-10-17T11:08:23.976Z,28.80
2022-10-17T11:11:09.148Z,28.07
2022-10-17T11:13:44.471Z,28.43
2022-10-17T11:16:29.138Z,28.25
2022-10-17T11:19:05.177Z,27.91
2022-10-17T11:24:22.860Z,27.81
2022-10-17T11:26:57.381Z,27.82
2022-10-17T11:29:29.812Z,27.73
2022-10-17T11:32:02.396Z,26.81
2022-10-17T11:34:36.638Z,26.71
2022-10-17T11:37:10.925Z,27.04
2022-10-17T11:39:48.639Z,27.17
2022-10-17T11:42:24.698Z,27.32
2022-10-17T11:45:00.458Z,27.27
2022-10-17T11:47:35.823Z,25.35
2022-10-17T11:53:02.802Z,26.64
2022-10-17T11:55:34.327Z,26.59
2022-10-17T11:58:24.574Z,26.81
2022-10-17T12:01:01.733Z,26.90
2022-10-17T12:03:41.318Z,26.87
2022-10-17T12:06:17.649Z,26.98
2022-10-17T12:08:55.086Z,26.50
2022-10-17T12:11:35.814Z,26.04
2022-10-17T12:14:37.150Z,26.17
2022-10-17T12:17:21.929Z,26.10
2022-10-17T12:19:50.444Z,26.04
2022-10-17T12:22:22.648Z,25.29
2022-10-17T12:24:57.566Z,25.90
2022-10-17T12:27:39.631Z,25.74
2022-10-17T12:30:19.185Z,26.31
2022-10-17T12:33:07.999Z,27.06
2022-10-17T12:35:38.557Z,25.68
2022-10-17T12:38:26.278Z,25.33
2022-10-17T12:40:57.788Z,26.56
2022-10-17T12:43:53.951Z,26.79
2022-10-17T12:46:56.654Z,26.76
2022-10-17T12:49:51.191Z,26.11
2022-10-17T12:52:26.948Z,26.57
2022-10-17T12:55:10.827Z,26.47
2022-10-17T12:57:49.763Z,26.20
2022-10-17T13:00:24.155Z,26.24
2022-10-17T13:02:57.202Z,26.02
2022-10-17T13:05:30.523Z,26.33
2022-10-17T13:08:02.115Z,26.13
2022-10-17T13:10:35.096Z,26.29
2022-10-17T13:13:14.039Z,26.44
2022-10-17T13:15:47.650Z,26.97
2022-10-17T13:18:22.803Z,27.05
2022-10-17T13:20:59.881Z,27.34
2022-10-17T13:23:33.106Z,27.00
2022-10-17T13:26:15.064Z,27.15
2022-10-17T13:28:44.489Z,27.02
2022-10-17T13:31:30.025Z,27.21
2022-10-17T13:34:01.832Z,27.51
2022-10-17T13:36:32.115Z,27.51
2022-10-17T13:39:07.640Z,27.07
2022-10-17T13:41:38.374Z,27.11
2022-10-17T13:44:14.399Z,27.40
2022-10-17T13:46:44.173Z,27.32
2022-10-17T13:49:23.191Z,27.12
2022-10-17T13:51:56.327Z,27.51
2022-10-17T13:54:36.386Z,27.33
2022-10-17T13:57:06.457Z,26.57
2022-10-17T13:59:40.059Z,26.91
2022-10-17T14:02:16.573Z,26.76
2022-10-17T14:05:15.606Z,26.97
2022-10-17T14:08:09.386Z,27.22
2022-10-17T14:10:34.272Z,27.02
2022-10-17T14:13:04.762Z,26.99
2022-10-17T14:15:36.222Z,26.91
2022-10-17T14:18:09.519Z,26.71
2022-10-17T14:21:19.828Z,27.14
2022-10-17T14:23:37.856Z,26.86
2022-10-17T14:26:09.616Z,27.06
2022-10-17T14:28:39.892Z,27.01
2022-10-17T14:31:25.700Z,27.09
2022-10-17T14:33:55.927Z,27.47
2022-10-17T14:36:40.000Z,27.21
2022-10-17T14:39:19.650Z,27.41
2022-10-17T14:41:49.287Z,27.72
2022-10-17T14:44:24.047Z,27.67
2022-10-17T14:46:56.773Z,27.89
2022-10-17T14:49:32.485Z,28.18
2022-10-17T14:52:31.672Z,27.86
2022-10-17T14:55:13.379Z,27.91
2022-10-17T14:57:46.905Z,27.94
2022-10-17T15:00:17.114Z,28.10
2022-10-17T15:02:46.465Z,27.97
2022-10-17T15:05:16.395Z,28.22
2022-10-17T15:07:46.247Z,28.20
2022-10-17T15:10:26.413Z,28.43
2022-10-17T15:12:59.936Z,28.61
2022-10-17T15:15:33.942Z,28.55
2022-10-17T15:18:02.856Z,28.72
2022-10-17T15:20:31.885Z,28.72
2022-10-17T15:23:03.224Z,28.70
2022-10-17T15:25:34.293Z,29.08
2022-10-17T15:28:02.734Z,29.18
2022-10-17T15:30:33.654Z,29.21
2022-10-17T15:33:02.952Z,29.66
2022-10-17T15:35:32.156Z,29.33
2022-10-17T15:38:02.401Z,29.73
2022-10-17T15:40:31.298Z,29.86
2022-10-17T15:42:59.686Z,30.46
2022-10-17T15:45:28.516Z,30.86
2022-10-17T15:48:01.738Z,30.97
2022-10-17T15:50:30.717Z,31.74
2022-10-17T15:53:00.009Z,31.66
2022-10-17T15:55:31.950Z,31.88
2022-10-17T15:58:00.345Z,31.97
2022-10-17T16:00:29.294Z,32.71
2022-10-17T16:02:57.941Z,32.87
2022-10-17T16:05:28.513Z,32.75
2022-10-17T16:07:58.017Z,33.12
2022-10-17T16:10:27.192Z,33.50
2022-10-17T16:12:57.260Z,33.43
2022-10-17T16:15:28.021Z,34.17
2022-10-17T16:18:00.566Z,34.09
2022-10-17T16:20:32.099Z,34.14
2022-10-17T16:23:03.047Z,34.18
2022-10-17T16:25:33.168Z,34.63
2022-10-17T16:28:04.212Z,34.64
2022-10-17T16:30:33.988Z,34.97
2022-10-17T16:33:02.368Z,35.00
2022-10-17T16:35:36.497Z,35.24
2022-10-17T16:38:07.268Z,34.98
2022-10-17T16:40:40.032Z,35.48
2022-10-17T16:43:12.367Z,35.11
2022-10-17T16:45:41.368Z,35.33
2022-10-17T16:48:10.825Z,35.71
2022-10-17T16:50:41.052Z,35.54
2022-10-17T16:53:09.885Z,35.51
2022-10-17T16:55:39.566Z,35.80
2022-10-17T16:58:09.312Z,35.64
2022-10-17T17:00:40.071Z,35.81
2022-10-17T17:03:08.558Z,35.70
2022-10-17T17:05:37.170Z,35.90
2022-10-17T17:08:09.086Z,35.88
2022-10-17T17:10:45.750Z,35.85
2022-10-17T17:13:15.758Z,35.67
2022-10-17T17:18:15.450Z,35.61
2022-10-17T17:20:44.108Z,35.53
2022-10-17T17:23:15.702Z,35.54
2022-10-17T17:25:45.304Z,35.61
2022-10-17T17:28:15.136Z,35.42
2022-10-17T17:30:44.009Z,35.66
2022-10-17T17:33:12.412Z,35.53
2022-10-17T17:35:41.216Z,35.55
2022-10-17T17:38:09.730Z,35.57
2022-10-17T17:40:38.494Z,35.82
2022-10-17T17:43:06.869Z,35.88
2022-10-17T17:45:37.289Z,35.81
2022-10-17T17:48:05.869Z,35.90
2022-10-17T17:50:37.702Z,36.16
2022-10-17T17:53:07.535Z,36.19
2022-10-17T17:55:37.189Z,36.11
2022-10-17T17:58:06.299Z,36.28
2022-10-17T18:00:37.383Z,36.25
2022-10-17T18:03:05.886Z,36.06
2022-10-17T18:05:35.003Z,36.14
2022-10-17T18:08:05.187Z,35.94
2022-10-17T18:10:33.838Z,35.98
2022-10-17T18:13:02.290Z,36.00
2022-10-17T18:15:31.273Z,36.18
2022-10-17T18:18:01.228Z,36.29
2022-10-17T18:20:30.045Z,36.22
2022-10-17T18:23:00.614Z,36.21
2022-10-17T18:25:32.223Z,36.44
2022-10-17T18:28:00.550Z,36.29
2022-10-17T18:30:32.290Z,36.20
2022-10-17T18:33:04.348Z,36.33
2022-10-17T18:35:33.267Z,36.30
2022-10-17T18:38:01.776Z,36.43
2022-10-17T18:40:30.551Z,36.33
2022-10-17T18:42:59.382Z,36.34
2022-10-17T18:45:28.389Z,36.38
2022-10-17T18:47:57.014Z,36.37
2022-10-17T18:50:27.470Z,36.48
2022-10-17T18:52:55.897Z,36.36
2022-10-17T18:55:25.081Z,36.58
2022-10-17T18:57:53.791Z,36.58
2022-10-17T19:00:22.751Z,36.77
2022-10-17T19:02:51.317Z,36.87
2022-10-17T19:05:19.909Z,37.05
2022-10-17T19:07:50.326Z,36.88
2022-10-17T19:10:19.383Z,36.91
2022-10-17T19:12:47.888Z,37.10
2022-10-17T19:15:16.792Z,36.83
2022-10-17T19:17:45.321Z,37.32
2022-10-17T19:20:14.040Z,37.45
2022-10-17T19:22:43.078Z,37.78
2022-10-17T19:25:14.043Z,38.08
2022-10-17T19:27:42.600Z,38.16
2022-10-17T19:30:12.680Z,38.06
2022-10-17T19:32:41.082Z,38.17
2022-10-17T19:35:11.738Z,38.36
2022-10-17T19:37:40.381Z,38.42
2022-10-17T19:40:11.251Z,38.60
2022-10-17T19:42:41.736Z,38.78
2022-10-17T19:45:11.264Z,38.71
2022-10-17T19:47:39.841Z,39.05
2022-10-17T19:50:09.277Z,39.04
2022-10-17T19:52:38.251Z,39.03
2022-10-17T19:55:07.806Z,39.24
2022-10-17T19:57:36.606Z,39.35
2022-10-17T20:00:08.027Z,39.37
2022-10-17T20:02:39.748Z,39.98
2022-10-17T20:05:18.555Z,39.75
2022-10-17T20:07:47.847Z,39.79
2022-10-17T20:10:18.450Z,40.15
2022-10-17T20:12:46.918Z,40.54
2022-10-17T20:15:17.044Z,40.11
2022-10-17T20:17:45.456Z,40.23
2022-10-17T20:20:14.371Z,40.27
2022-10-17T20:22:42.756Z,40.17
2022-10-17T20:25:11.630Z,40.29
2022-10-17T20:27:39.976Z,40.48
2022-10-17T20:30:09.521Z,40.39
2022-10-17T20:32:39.758Z,40.53
2022-10-17T20:35:09.393Z,40.59
2022-10-17T20:37:41.676Z,40.83
2022-10-17T20:43:00.655Z,40.39
2022-10-17T20:45:43.746Z,40.51
2022-10-17T20:48:19.257Z,40.60
2022-10-17T20:50:47.888Z,40.17
2022-10-17T20:53:36.987Z,40.45
2022-10-17T20:56:08.605Z,40.45
2022-10-17T20:58:37.201Z,40.43
2022-10-17T21:01:07.639Z,40.63
2022-10-17T21:03:39.937Z,40.50
2022-10-17T21:06:11.813Z,40.55
2022-10-17T21:08:41.299Z,40.50
2022-10-17T21:11:12.599Z,39.97
2022-10-17T21:13:41.719Z,40.18
2022-10-17T21:16:12.061Z,40.51
2022-10-17T21:18:42.239Z,40.23
2022-10-17T21:21:13.914Z,39.78
2022-10-17T21:23:44.211Z,40.19
2022-10-17T21:26:13.781Z,39.96
2022-10-17T21:28:43.623Z,40.14
2022-10-17T21:31:15.422Z,39.92
2022-10-17T21:33:47.237Z,40.04
2022-10-17T21:36:17.372Z,40.16
2022-10-17T21:38:47.262Z,40.50
2022-10-17T21:41:17.863Z,40.31
2022-10-17T21:43:46.772Z,40.11
2022-10-17T21:46:17.340Z,40.29
2022-10-17T21:48:52.252Z,40.15
2022-10-17T21:51:26.537Z,40.43
2022-10-17T21:53:57.587Z,40.51
2022-10-17T21:56:28.711Z,40.98
2022-10-17T21:58:57.554Z,41.10
2022-10-17T22:01:28.120Z,41.28
2022-10-17T22:04:01.966Z,41.47
2022-10-17T22:06:39.619Z,41.20
2022-10-17T22:09:16.535Z,41.18
2022-10-17T22:11:46.986Z,41.47
2022-10-17T22:14:22.839Z,41.57
2022-10-17T22:16:51.797Z,41.31
2022-10-17T22:19:24.416Z,41.84
2022-10-17T22:21:53.516Z,41.56
2022-10-17T22:24:23.305Z,41.61
2022-10-17T22:26:52.264Z,41.62
2022-10-17T22:29:21.231Z,41.73
2022-10-17T22:31:49.900Z,41.40
2022-10-17T22:34:19.271Z,41.92
2022-10-17T22:36:49.228Z,41.44
2022-10-17T22:39:17.752Z,41.66
2022-10-17T22:41:46.432Z,41.65
2022-10-17T22:44:14.855Z,41.87
2022-10-17T22:46:43.613Z,41.81
2022-10-17T22:49:12.599Z,42.00
2022-10-17T22:51:41.379Z,41.41
2022-10-17T22:54:11.113Z,41.88
2022-10-17T22:56:39.805Z,41.71
2022-10-17T22:59:08.218Z,42.22
2022-10-17T23:01:36.894Z,42.33
2022-10-17T23:04:05.448Z,42.11
2022-10-17T23:06:34.095Z,42.12
2022-10-17T23:09:03.252Z,42.11
2022-10-17T23:11:33.264Z,42.41
2022-10-17T23:14:01.625Z,42.03
2022-10-17T23:16:30.495Z,42.60
2022-10-17T23:18:59.166Z,42.24
2022-10-17T23:21:27.755Z,42.28
2022-10-17T23:23:56.235Z,42.68
2022-10-17T23:26:24.809Z,43.03
2022-10-17T23:28:56.205Z,43.23
2022-10-17T23:31:24.826Z,43.37
2022-10-17T23:33:53.235Z,43.53
2022-10-17T23:36:22.500Z,43.10
2022-10-17T23:38:53.720Z,43.33
2022-10-17T23:41:25.014Z,43.88
2022-10-17T23:43:53.448Z,43.40
2022-10-17T23:46:23.655Z,43.63
2022-10-17T23:48:52.064Z,43.59
2022-10-17T23:51:20.568Z,43.86
2022-10-17T23:53:48.996Z,44.01
2022-10-17T23:56:17.847Z,44.15
2022-10-17T23:58:46.164Z,44.61
